Pell Lake, Wisconsin
Current Conditions -  °F | °C
As of 4:15 AM on Sunday 25 Jan 2015 (Local Time) from KBUU Reporting Station
Overcast Overcast  
Wind Chill: 17°   Ceiling: 1300
Heat Index: 28°   Visibility: 10mi
Dew Point: 24°   Wind: 14mph
Humidity: 86%   Direction: 50°NE
Pressure: 29.73"   Gusts: 22mph
Location:  42.54°N, 88.37°W
Report Text: KBUU 251015Z AUTO 05012G19KT 10SM OVC013 M02/M04 A2973 RMK AO2 T10221043
Loading
Personal Weather Stations






























Interactive Weather Map New forecast layout! Learn more

10-Day Weather Forecast

Advertisements
Track Severe Weather on mobile